createdAt,value
2022-10-04T00:00:00.947Z,81.98
2022-10-04T00:01:10.188Z,81.88
2022-10-04T00:02:24.301Z,82.05
2022-10-04T00:03:30.908Z,82.16
2022-10-04T00:04:42.815Z,81.95
2022-10-04T00:05:50.472Z,81.65
2022-10-04T00:06:59.626Z,81.91
2022-10-04T00:08:07.692Z,81.92
2022-10-04T00:09:16.119Z,81.86
2022-10-04T00:10:21.849Z,81.76
2022-10-04T00:11:26.590Z,81.74
2022-10-04T00:12:34.453Z,81.79
2022-10-04T00:13:38.045Z,81.82
2022-10-04T00:14:44.236Z,82.08
2022-10-04T00:15:51.428Z,81.63
2022-10-04T00:16:54.190Z,81.81
2022-10-04T00:18:03.664Z,81.56
2022-10-04T00:19:42.200Z,81.80
2022-10-04T00:20:58.689Z,81.60
2022-10-04T00:22:22.114Z,81.61
2022-10-04T00:23:29.900Z,81.51
2022-10-04T00:24:35.019Z,81.72
2022-10-04T00:25:36.779Z,81.39
2022-10-04T00:27:19.937Z,81.50
2022-10-04T00:28:42.659Z,81.59
2022-10-04T00:29:51.178Z,81.43
2022-10-04T00:31:10.677Z,81.25
2022-10-04T00:32:28.344Z,81.70
2022-10-04T00:33:36.858Z,81.43
2022-10-04T00:34:48.105Z,81.18
2022-10-04T00:35:50.792Z,81.65
2022-10-04T00:36:54.806Z,81.43
2022-10-04T00:37:58.358Z,81.41
2022-10-04T00:39:15.263Z,81.35
2022-10-04T00:40:21.012Z,81.50
2022-10-04T00:41:23.628Z,81.40
2022-10-04T00:42:48.990Z,81.61
2022-10-04T00:43:51.877Z,81.43
2022-10-04T00:45:00.171Z,81.11
2022-10-04T00:46:05.864Z,81.49
2022-10-04T00:52:00.741Z,81.29
2022-10-04T00:53:11.933Z,81.30
2022-10-04T00:54:19.856Z,81.35
2022-10-04T00:55:28.822Z,81.63
2022-10-04T00:56:38.601Z,81.44
2022-10-04T00:57:45.376Z,81.28
2022-10-04T00:59:11.007Z,81.39
2022-10-04T01:00:15.758Z,81.42
2022-10-04T01:01:25.106Z,81.22
2022-10-04T01:02:30.903Z,81.27
2022-10-04T01:03:37.480Z,81.04
2022-10-04T01:04:43.779Z,81.05
2022-10-04T01:05:50.651Z,81.37
2022-10-04T01:06:53.212Z,81.19
2022-10-04T01:12:53.832Z,81.22
2022-10-04T01:13:58.586Z,81.15
2022-10-04T01:15:08.354Z,81.43
2022-10-04T01:16:16.117Z,80.99
2022-10-04T01:17:17.793Z,81.28
2022-10-04T01:18:30.727Z,81.28
2022-10-04T01:19:32.622Z,81.38
2022-10-04T01:20:38.347Z,81.28
2022-10-04T01:21:40.524Z,81.35
2022-10-04T01:22:51.210Z,81.48
2022-10-04T01:23:53.824Z,81.39
2022-10-04T01:24:56.392Z,81.39
2022-10-04T01:25:58.903Z,81.16
2022-10-04T01:27:01.872Z,81.54
2022-10-04T01:28:03.522Z,81.42
2022-10-04T01:29:09.978Z,81.71
2022-10-04T01:30:15.513Z,81.37
2022-10-04T01:31:17.189Z,81.49
2022-10-04T01:32:19.830Z,81.36
2022-10-04T01:33:21.478Z,81.35
2022-10-04T01:34:27.063Z,81.39
2022-10-04T01:35:28.794Z,81.26
2022-10-04T01:36:32.070Z,81.43
2022-10-04T01:37:34.735Z,81.30
2022-10-04T01:38:37.834Z,81.35
2022-10-04T01:39:40.333Z,81.07
2022-10-04T01:40:46.569Z,81.23
2022-10-04T01:41:56.557Z,81.34
2022-10-04T01:43:05.860Z,81.33
2022-10-04T01:44:12.910Z,81.33
2022-10-04T01:45:22.318Z,81.28
2022-10-04T01:46:28.244Z,81.42
2022-10-04T01:47:37.879Z,81.35
2022-10-04T01:48:44.583Z,81.29
2022-10-04T01:49:48.756Z,81.09
2022-10-04T01:50:56.307Z,81.37
2022-10-04T01:52:04.253Z,81.43
2022-10-04T01:53:16.748Z,81.43
2022-10-04T01:54:23.982Z,81.31
2022-10-04T01:55:30.584Z,81.38
2022-10-04T01:56:38.984Z,81.21
2022-10-04T01:57:47.536Z,81.32
2022-10-04T01:58:52.259Z,81.36
2022-10-04T02:00:02.636Z,81.41
2022-10-04T02:01:10.623Z,81.43
2022-10-04T02:02:23.035Z,81.36
2022-10-04T02:03:31.016Z,81.39
2022-10-04T02:04:38.015Z,81.43
2022-10-04T02:05:44.606Z,81.31
2022-10-04T02:06:54.007Z,81.42
2022-10-04T02:12:48.120Z,81.62
2022-10-04T02:13:53.382Z,81.60
2022-10-04T02:14:58.002Z,81.67
2022-10-04T02:16:02.647Z,81.58
2022-10-04T02:17:10.317Z,81.56
2022-10-04T02:18:14.734Z,81.65
2022-10-04T02:19:17.914Z,81.88
2022-10-04T02:20:26.687Z,81.78
2022-10-04T02:21:30.623Z,81.56
2022-10-04T02:22:32.281Z,81.41
2022-10-04T02:23:38.093Z,81.61
2022-10-04T02:24:44.283Z,81.73
2022-10-04T02:25:46.942Z,81.73
2022-10-04T02:26:52.420Z,81.80
2022-10-04T02:27:57.150Z,82.00
2022-10-04T02:28:58.857Z,82.02
2022-10-04T02:30:02.837Z,81.93
2022-10-04T02:31:25.385Z,82.06
2022-10-04T02:32:47.898Z,81.81
2022-10-04T02:33:51.817Z,82.01
2022-10-04T02:34:56.031Z,82.14
2022-10-04T02:35:58.431Z,82.09
2022-10-04T02:37:03.991Z,82.18
2022-10-04T02:38:14.629Z,82.26
2022-10-04T02:39:21.604Z,82.39
2022-10-04T02:40:28.872Z,82.60
2022-10-04T02:41:35.647Z,82.38
2022-10-04T02:42:40.025Z,82.24
2022-10-04T02:43:51.460Z,82.31
2022-10-04T02:45:00.123Z,82.47
2022-10-04T02:46:10.922Z,82.30
2022-10-04T02:47:16.239Z,82.51
2022-10-04T02:48:33.025Z,82.56
2022-10-04T02:49:38.040Z,82.41
2022-10-04T02:50:47.158Z,82.54
2022-10-04T02:51:53.862Z,82.59
2022-10-04T02:53:02.241Z,82.65
2022-10-04T02:54:10.815Z,82.42
2022-10-04T02:55:21.568Z,82.53
2022-10-04T02:56:25.206Z,82.71
2022-10-04T02:57:28.224Z,82.69
2022-10-04T03:11:04.327Z,82.58
2022-10-04T03:12:06.352Z,82.64
2022-10-04T03:17:51.148Z,82.96
2022-10-04T03:18:55.595Z,82.57
2022-10-04T03:19:58.675Z,82.61
2022-10-04T03:21:02.374Z,82.77
2022-10-04T03:22:09.530Z,82.62
2022-10-04T03:23:13.541Z,82.65
2022-10-04T03:24:20.914Z,82.53
2022-10-04T03:25:28.355Z,82.62
2022-10-04T03:26:37.926Z,82.67
2022-10-04T03:27:39.814Z,82.78
2022-10-04T03:28:42.629Z,82.66
2022-10-04T03:29:44.674Z,82.68
2022-10-04T03:30:48.941Z,82.89
2022-10-04T03:31:54.125Z,82.63
2022-10-04T03:32:57.067Z,82.98
2022-10-04T03:33:59.029Z,82.72
2022-10-04T03:35:05.338Z,83.00
2022-10-04T03:36:13.180Z,82.85
2022-10-04T03:37:19.196Z,83.15
2022-10-04T03:38:23.602Z,83.01
2022-10-04T03:39:30.792Z,83.04
2022-10-04T03:40:34.619Z,83.10
2022-10-04T03:41:39.830Z,83.18
2022-10-04T03:42:42.623Z,83.21
2022-10-04T03:43:46.497Z,83.05
2022-10-04T03:44:52.151Z,83.24
2022-10-04T03:45:55.337Z,83.01
2022-10-04T03:46:58.401Z,83.23
2022-10-04T03:48:05.513Z,83.24
2022-10-04T03:49:09.380Z,83.10
2022-10-04T03:50:16.519Z,83.30
2022-10-04T03:51:21.944Z,83.28
2022-10-04T03:52:26.063Z,83.26
2022-10-04T03:53:32.691Z,83.29
2022-10-04T03:54:36.035Z,83.05
2022-10-04T03:55:43.181Z,83.23
2022-10-04T03:56:47.018Z,83.43
2022-10-04T03:57:49.734Z,83.25
2022-10-04T03:58:52.203Z,83.31
2022-10-04T03:59:55.119Z,83.29
2022-10-04T04:01:20.083Z,83.42
2022-10-04T04:02:33.680Z,83.41
2022-10-04T04:03:46.823Z,83.32
2022-10-04T04:05:00.757Z,83.44
2022-10-04T04:06:07.757Z,83.42
2022-10-04T04:07:14.104Z,83.45
2022-10-04T04:08:24.175Z,83.35
2022-10-04T04:09:36.992Z,83.22
2022-10-04T04:10:42.427Z,83.32
2022-10-04T04:11:50.581Z,83.19
2022-10-04T04:12:57.051Z,83.41
2022-10-04T04:14:05.060Z,83.36
2022-10-04T04:15:11.531Z,83.38
2022-10-04T04:16:14.687Z,83.35
2022-10-04T04:17:35.674Z,83.16
2022-10-04T04:18:41.847Z,83.30
2022-10-04T04:19:46.146Z,83.25
2022-10-04T04:20:49.609Z,83.23
2022-10-04T04:21:56.312Z,83.08
2022-10-04T04:23:01.762Z,83.25
2022-10-04T04:24:09.519Z,83.13
2022-10-04T04:25:15.999Z,83.11
2022-10-04T04:26:26.174Z,82.87
2022-10-04T04:27:33.313Z,83.17
2022-10-04T04:28:42.287Z,82.92
2022-10-04T04:29:48.395Z,83.22
2022-10-04T04:30:54.163Z,83.09
2022-10-04T04:32:01.047Z,82.94
2022-10-04T04:33:11.073Z,83.13
2022-10-04T04:34:19.626Z,82.91
2022-10-04T04:35:24.765Z,83.11
2022-10-04T04:36:27.809Z,83.04
2022-10-04T04:37:30.286Z,82.89
2022-10-04T04:38:32.690Z,83.27
2022-10-04T04:39:34.383Z,83.18
2022-10-04T04:40:37.945Z,82.91
2022-10-04T04:41:41.085Z,82.91
2022-10-04T04:42:45.600Z,83.24
2022-10-04T04:43:47.240Z,82.87
2022-10-04T04:44:52.063Z,83.14
2022-10-04T04:46:08.883Z,83.27
2022-10-04T04:47:29.766Z,82.94
2022-10-04T04:48:31.937Z,82.92
2022-10-04T04:49:39.682Z,82.85
2022-10-04T04:50:41.790Z,83.27
2022-10-04T04:51:50.772Z,83.05
2022-10-04T04:52:55.454Z,82.89
2022-10-04T04:54:04.795Z,83.17
2022-10-04T04:55:16.335Z,83.12
2022-10-04T04:56:20.033Z,83.14
2022-10-04T04:57:22.944Z,83.32
2022-10-04T04:58:32.855Z,83.15
2022-10-04T04:59:37.034Z,83.06
2022-10-04T05:00:39.643Z,83.17
2022-10-04T05:01:45.935Z,83.11
2022-10-04T05:02:58.641Z,83.33
2022-10-04T05:04:03.139Z,83.23
2022-10-04T05:05:19.124Z,83.15
2022-10-04T05:06:27.134Z,83.51
2022-10-04T05:07:29.473Z,83.29
2022-10-04T05:08:40.974Z,83.32
2022-10-04T05:09:43.023Z,83.25
2022-10-04T05:10:55.413Z,83.12
2022-10-04T05:12:07.529Z,83.61
2022-10-04T05:13:12.009Z,83.37
2022-10-04T05:14:17.666Z,83.17
2022-10-04T05:15:20.288Z,83.25
2022-10-04T05:16:27.201Z,83.22
2022-10-04T05:17:35.510Z,83.29
2022-10-04T05:18:37.161Z,83.20
2022-10-04T05:19:41.067Z,83.42
2022-10-04T05:20:49.525Z,83.33
2022-10-04T05:21:55.396Z,83.43
2022-10-04T05:27:46.283Z,83.26
2022-10-04T05:28:47.888Z,83.34
2022-10-04T05:30:01.630Z,83.25
2022-10-04T05:31:31.624Z,83.32
2022-10-04T05:32:47.694Z,83.49
2022-10-04T05:33:51.540Z,83.33
2022-10-04T05:34:54.451Z,83.57
2022-10-04T05:36:21.943Z,83.37
2022-10-04T05:37:39.984Z,83.25
2022-10-04T05:38:50.637Z,83.29
2022-10-04T05:40:05.758Z,83.39
2022-10-04T05:41:14.273Z,83.20
2022-10-04T05:42:23.218Z,83.43
2022-10-04T05:43:35.352Z,83.18
2022-10-04T05:44:47.280Z,83.36
2022-10-04T05:46:22.627Z,83.25
2022-10-04T05:47:28.964Z,83.41
2022-10-04T05:48:30.607Z,83.50
2022-10-04T05:49:38.818Z,83.52
2022-10-04T05:50:43.637Z,83.58
2022-10-04T05:51:51.297Z,83.60
2022-10-04T05:59:04.434Z,83.30
2022-10-04T06:02:55.761Z,83.52
2022-10-04T06:04:14.489Z,83.46
2022-10-04T06:05:28.190Z,83.42
2022-10-04T06:06:39.351Z,83.32
2022-10-04T06:12:44.550Z,83.26
2022-10-04T06:14:18.967Z,83.20
2022-10-04T06:15:41.875Z,83.25
2022-10-04T06:16:58.814Z,83.05
2022-10-04T06:18:18.437Z,83.18
2022-10-04T06:19:46.682Z,83.25
2022-10-04T06:21:05.841Z,83.40
2022-10-04T06:22:17.522Z,83.21
2022-10-04T06:23:21.049Z,83.18
2022-10-04T06:24:28.298Z,83.11
2022-10-04T06:25:34.250Z,83.26
2022-10-04T06:26:43.642Z,83.27
2022-10-04T06:27:49.520Z,83.39
2022-10-04T06:28:57.077Z,83.32
2022-10-04T06:30:02.682Z,83.30
2022-10-04T06:31:42.718Z,83.01
2022-10-04T06:33:02.230Z,83.08
2022-10-04T06:34:25.868Z,83.07
2022-10-04T06:36:06.493Z,82.99
2022-10-04T06:37:28.314Z,82.67
2022-10-04T06:39:04.121Z,82.61
2022-10-04T06:40:31.480Z,82.57
2022-10-04T06:41:56.475Z,82.59
2022-10-04T06:43:12.626Z,82.54
2022-10-04T06:44:53.743Z,82.44
2022-10-04T06:46:08.048Z,82.70
2022-10-04T06:47:25.167Z,82.51
2022-10-04T06:49:00.242Z,82.27
2022-10-04T06:50:22.195Z,82.19
2022-10-04T06:51:37.510Z,82.25
2022-10-04T06:52:59.341Z,82.34
2022-10-04T06:54:13.806Z,82.43
2022-10-04T06:55:41.112Z,82.06
2022-10-04T06:57:11.648Z,82.26
2022-10-04T06:58:41.348Z,81.95
2022-10-04T07:00:02.827Z,82.14
2022-10-04T07:01:23.491Z,82.07
2022-10-04T07:02:30.943Z,82.21
2022-10-04T07:03:39.684Z,81.95
2022-10-04T07:05:07.497Z,81.73
2022-10-04T07:06:12.362Z,81.97
2022-10-04T07:07:35.409Z,81.61
2022-10-04T07:08:43.045Z,81.55
2022-10-04T07:09:46.476Z,81.63
2022-10-04T07:10:55.333Z,81.29
2022-10-04T07:12:03.992Z,81.33
2022-10-04T07:14:21.410Z,81.40
2022-10-04T07:15:29.549Z,81.26
2022-10-04T07:17:46.735Z,81.10
2022-10-04T07:19:00.535Z,80.99
2022-10-04T07:20:05.380Z,81.05
2022-10-04T07:21:12.703Z,80.94
2022-10-04T07:22:22.473Z,80.99
2022-10-04T07:23:28.849Z,80.99
2022-10-04T07:24:47.226Z,81.04
2022-10-04T07:25:52.396Z,80.79
2022-10-04T07:26:56.414Z,80.80
2022-10-04T07:28:21.780Z,80.80
2022-10-04T07:29:27.620Z,80.40
2022-10-04T07:30:39.552Z,80.61
2022-10-04T07:31:42.820Z,80.55
2022-10-04T07:32:47.635Z,80.23
2022-10-04T07:33:53.177Z,80.42
2022-10-04T07:35:02.954Z,80.37
2022-10-04T07:36:09.563Z,80.32
2022-10-04T07:37:15.089Z,80.32
2022-10-04T07:38:24.457Z,80.22
2022-10-04T07:39:31.155Z,80.29
2022-10-04T07:40:36.682Z,80.11
2022-10-04T07:41:48.937Z,80.08
2022-10-04T07:42:59.667Z,80.02
2022-10-04T07:44:04.890Z,80.21
2022-10-04T07:45:15.178Z,80.21
2022-10-04T07:46:24.526Z,80.03
2022-10-04T07:47:29.399Z,80.04
2022-10-04T07:48:30.979Z,79.86
2022-10-04T07:49:39.360Z,80.15
2022-10-04T07:50:49.929Z,79.97
2022-10-04T07:52:33.036Z,79.87
2022-10-04T07:53:47.661Z,79.83
2022-10-04T07:54:58.001Z,79.59
2022-10-04T07:56:07.560Z,79.72
2022-10-04T07:57:18.944Z,79.55
2022-10-04T07:58:42.096Z,79.72
2022-10-04T07:59:57.932Z,79.74
2022-10-04T08:01:03.533Z,79.54
2022-10-04T08:02:18.846Z,79.35
2022-10-04T08:03:33.130Z,79.67
2022-10-04T08:04:46.640Z,79.38
2022-10-04T08:05:54.016Z,79.55
2022-10-04T08:12:07.124Z,79.30
2022-10-04T08:13:20.407Z,79.18
2022-10-04T08:14:35.656Z,78.83
2022-10-04T08:15:40.131Z,79.28
2022-10-04T08:16:58.324Z,79.12
2022-10-04T08:18:17.895Z,79.10
2022-10-04T08:19:38.141Z,79.07
2022-10-04T08:20:49.105Z,79.03
2022-10-04T08:22:00.242Z,79.01
2022-10-04T08:23:13.892Z,79.26
2022-10-04T08:24:24.790Z,79.00
2022-10-04T08:25:32.784Z,79.15
2022-10-04T08:26:45.170Z,78.75
2022-10-04T08:28:22.208Z,78.79
2022-10-04T08:29:47.630Z,78.60
2022-10-04T08:31:13.421Z,78.83
2022-10-04T08:32:31.023Z,78.60
2022-10-04T08:33:48.086Z,78.67
2022-10-04T08:35:16.145Z,78.87
2022-10-04T08:36:29.875Z,78.42
2022-10-04T08:37:40.809Z,78.41
2022-10-04T08:38:48.721Z,78.36
2022-10-04T08:40:23.947Z,78.36
2022-10-04T08:41:56.030Z,78.28
2022-10-04T08:43:25.482Z,78.09
2022-10-04T08:45:12.068Z,77.90
2022-10-04T08:46:53.160Z,77.67
2022-10-04T08:48:32.818Z,77.67
2022-10-04T08:50:06.601Z,77.49
2022-10-04T08:51:36.693Z,77.49
2022-10-04T08:53:16.272Z,77.53
2022-10-04T08:54:51.996Z,77.39
2022-10-04T08:56:11.477Z,77.72
2022-10-04T08:57:26.563Z,77.19
2022-10-04T08:58:52.815Z,77.17
2022-10-04T09:00:22.224Z,77.31
2022-10-04T09:01:45.726Z,76.91
2022-10-04T09:03:24.133Z,77.07
2022-10-04T09:04:51.912Z,76.96
2022-10-04T09:06:04.572Z,76.93
2022-10-04T09:07:40.912Z,76.76
2022-10-04T09:09:21.015Z,77.02
2022-10-04T09:10:35.458Z,76.78
2022-10-04T09:12:03.514Z,76.75
2022-10-04T09:13:30.852Z,76.66
2022-10-04T09:14:52.077Z,76.62
2022-10-04T09:15:56.519Z,76.69
2022-10-04T09:17:21.238Z,76.51
2022-10-04T09:18:49.610Z,76.31
2022-10-04T09:20:14.033Z,76.49
2022-10-04T09:21:37.042Z,76.35
2022-10-04T09:22:50.130Z,76.27
2022-10-04T09:24:17.816Z,76.41
2022-10-04T09:25:35.550Z,76.20
2022-10-04T09:26:46.003Z,75.97
2022-10-04T09:28:10.064Z,76.26
2022-10-04T09:29:42.851Z,76.00
2022-10-04T09:31:00.234Z,76.05
2022-10-04T09:32:37.280Z,76.24
2022-10-04T09:33:56.526Z,76.06
2022-10-04T09:35:34.033Z,76.06
2022-10-04T09:37:29.148Z,76.18
2022-10-04T09:39:28.407Z,75.70
2022-10-04T09:40:58.427Z,75.78
2022-10-04T09:42:36.180Z,75.70
2022-10-04T09:44:17.353Z,75.68
2022-10-04T09:45:53.336Z,75.71
2022-10-04T09:47:37.750Z,75.68
2022-10-04T09:48:46.554Z,75.59
2022-10-04T09:50:26.564Z,75.59
2022-10-04T09:52:01.728Z,75.37
2022-10-04T09:53:30.143Z,75.18
2022-10-04T09:54:58.535Z,75.17
2022-10-04T09:56:41.379Z,74.87
2022-10-04T09:58:07.390Z,75.08
2022-10-04T09:59:24.750Z,74.94
2022-10-04T10:00:33.777Z,75.05
2022-10-04T10:01:44.826Z,74.78
2022-10-04T10:02:59.983Z,74.63
2022-10-04T10:04:38.416Z,74.73
2022-10-04T10:06:04.518Z,74.76
2022-10-04T10:07:39.654Z,74.53
2022-10-04T10:08:56.063Z,74.47
2022-10-04T10:10:26.334Z,74.64
2022-10-04T10:11:54.622Z,74.27
2022-10-04T10:13:43.230Z,74.54
2022-10-04T10:15:16.532Z,74.12
2022-10-04T10:16:42.012Z,74.21
2022-10-04T10:17:54.284Z,74.01
2022-10-04T10:19:13.000Z,73.95
2022-10-04T10:20:36.276Z,73.94
2022-10-04T10:21:53.981Z,73.72
2022-10-04T10:23:21.011Z,73.76
2022-10-04T10:24:44.995Z,73.76
2022-10-04T10:26:08.020Z,73.83
2022-10-04T10:27:26.442Z,73.69
2022-10-04T10:28:46.509Z,73.38
2022-10-04T10:30:07.091Z,73.55
2022-10-04T10:31:27.138Z,73.42
2022-10-04T10:33:10.648Z,73.47
2022-10-04T10:34:37.140Z,73.21
2022-10-04T10:35:54.153Z,73.36
2022-10-04T10:37:08.934Z,73.06
2022-10-04T10:38:36.014Z,73.00
2022-10-04T10:39:57.687Z,72.94
2022-10-04T10:41:21.351Z,72.91
2022-10-04T10:42:43.683Z,72.68
2022-10-04T10:44:09.759Z,72.77
2022-10-04T10:45:21.118Z,72.84
2022-10-04T10:46:37.788Z,72.56
2022-10-04T10:47:50.881Z,72.36
2022-10-04T10:49:10.488Z,72.44
2022-10-04T10:50:59.229Z,72.52
2022-10-04T10:52:34.029Z,72.30
2022-10-04T10:54:11.414Z,72.28
2022-10-04T10:55:44.662Z,72.37
2022-10-04T10:56:57.199Z,72.00
2022-10-04T10:58:28.485Z,71.93
2022-10-04T11:00:06.428Z,72.00
2022-10-04T11:01:36.392Z,71.82
2022-10-04T11:03:16.502Z,72.07
2022-10-04T11:04:42.128Z,71.87
2022-10-04T11:06:15.277Z,71.82
2022-10-04T11:07:41.952Z,71.63
2022-10-04T11:09:17.345Z,71.65
2022-10-04T11:10:53.385Z,71.70
2022-10-04T11:12:28.018Z,71.46
2022-10-04T11:13:51.487Z,71.61
2022-10-04T11:15:31.552Z,71.49
2022-10-04T11:16:48.102Z,71.38
2022-10-04T11:18:21.820Z,71.20
2022-10-04T11:20:05.425Z,70.91
2022-10-04T11:21:53.440Z,71.00
2022-10-04T11:23:29.708Z,70.81
2022-10-04T11:25:04.923Z,70.78
2022-10-04T11:26:47.836Z,70.75
2022-10-04T11:28:02.371Z,70.47
2022-10-04T11:29:20.504Z,70.69
2022-10-04T11:30:26.147Z,70.53
2022-10-04T11:32:07.162Z,70.54
2022-10-04T11:34:00.637Z,70.54
2022-10-04T11:35:44.341Z,70.33
2022-10-04T11:37:04.697Z,70.20
2022-10-04T11:38:15.808Z,70.21
2022-10-04T11:39:44.669Z,70.04
2022-10-04T11:41:07.218Z,69.99
2022-10-04T11:42:21.200Z,70.09
2022-10-04T11:43:46.458Z,69.69
2022-10-04T11:45:08.743Z,69.79
2022-10-04T11:46:35.867Z,69.63
2022-10-04T11:47:51.282Z,69.60
2022-10-04T11:49:08.187Z,69.62
2022-10-04T11:50:48.176Z,69.32
2022-10-04T11:52:17.589Z,69.36
2022-10-04T11:53:52.561Z,69.32
2022-10-04T11:55:34.100Z,69.34
2022-10-04T11:56:47.363Z,69.26
2022-10-04T11:57:53.988Z,69.23
2022-10-04T11:59:22.730Z,69.02
2022-10-04T12:00:28.983Z,68.96
2022-10-04T12:01:56.146Z,68.96
2022-10-04T12:03:18.746Z,68.73
2022-10-04T12:05:02.931Z,68.53
2022-10-04T12:06:24.274Z,68.49
2022-10-04T12:07:38.111Z,68.46
2022-10-04T12:09:04.683Z,68.36
2022-10-04T12:10:23.011Z,68.61
2022-10-04T12:12:25.719Z,68.27
2022-10-04T12:13:50.496Z,68.31
2022-10-04T12:15:16.451Z,68.28
2022-10-04T12:16:57.579Z,68.15
2022-10-04T12:18:26.344Z,67.97
2022-10-04T12:20:03.796Z,67.88
2022-10-04T12:21:30.442Z,67.77
2022-10-04T12:22:46.858Z,67.54
2022-10-04T12:24:11.661Z,67.28
2022-10-04T12:25:48.187Z,67.27
2022-10-04T12:27:28.541Z,67.08
2022-10-04T12:29:00.725Z,66.95
2022-10-04T12:30:22.777Z,66.82
2022-10-04T12:31:29.713Z,66.56
2022-10-04T12:32:38.746Z,66.55
2022-10-04T12:33:47.667Z,66.38
2022-10-04T12:34:59.548Z,66.06
2022-10-04T12:36:20.642Z,66.01
2022-10-04T12:37:31.004Z,65.94
2022-10-04T12:38:50.652Z,65.84
2022-10-04T12:40:18.861Z,65.79
2022-10-04T12:41:38.075Z,65.67
2022-10-04T12:42:52.576Z,65.63
2022-10-04T12:44:06.127Z,65.48
2022-10-04T12:45:42.526Z,65.43
2022-10-04T12:46:57.959Z,65.40
2022-10-04T12:48:15.527Z,65.42
2022-10-04T12:49:30.230Z,65.38
2022-10-04T12:50:47.753Z,65.32
2022-10-04T12:52:09.046Z,65.41
2022-10-04T12:53:22.837Z,65.31
2022-10-04T12:54:35.554Z,65.38
2022-10-04T12:55:57.290Z,65.18
2022-10-04T12:57:14.559Z,65.11
2022-10-04T12:58:24.730Z,65.11
2022-10-04T12:59:52.070Z,65.09
2022-10-04T13:01:02.616Z,65.10
2022-10-04T13:02:21.118Z,65.12
2022-10-04T13:03:35.845Z,65.03
2022-10-04T13:04:42.206Z,65.23
2022-10-04T13:05:59.327Z,65.24
2022-10-04T13:07:21.069Z,65.21
2022-10-04T13:08:38.536Z,65.20
2022-10-04T13:10:22.624Z,65.25
2022-10-04T13:11:36.405Z,65.19
2022-10-04T13:12:46.983Z,65.23
2022-10-04T13:14:11.293Z,65.10
2022-10-04T13:15:25.918Z,65.08
2022-10-04T13:18:19.996Z,64.71
2022-10-04T13:19:29.877Z,64.39
2022-10-04T13:20:51.805Z,64.26
2022-10-04T13:22:11.369Z,64.06
2022-10-04T13:23:26.221Z,64.21
2022-10-04T13:24:54.864Z,64.16
2022-10-04T13:26:23.411Z,64.20
2022-10-04T13:27:38.279Z,64.01
2022-10-04T13:28:51.249Z,63.79
2022-10-04T13:30:02.230Z,63.70
2022-10-04T13:31:09.691Z,63.96
2022-10-04T13:32:18.531Z,63.84
2022-10-04T13:33:29.940Z,63.87
2022-10-04T13:34:40.703Z,63.88
2022-10-04T13:35:50.925Z,63.56
2022-10-04T13:37:09.742Z,63.71
2022-10-04T13:38:39.593Z,63.64
2022-10-04T13:40:03.150Z,63.42
2022-10-04T13:41:23.901Z,63.50
2022-10-04T13:42:53.620Z,63.49
2022-10-04T13:44:15.180Z,63.24
2022-10-04T13:45:34.718Z,63.29
2022-10-04T13:46:45.802Z,63.45
2022-10-04T13:48:00.741Z,63.06
2022-10-04T13:49:21.017Z,63.33
2022-10-04T13:50:33.863Z,63.47
2022-10-04T13:52:13.755Z,63.46
2022-10-04T13:53:43.461Z,63.54
2022-10-04T13:55:27.666Z,63.61
2022-10-04T13:56:54.737Z,63.64
2022-10-04T13:58:10.891Z,63.47
2022-10-04T13:59:22.870Z,63.73
2022-10-04T14:00:49.780Z,63.44
2022-10-04T14:02:27.749Z,63.54
2022-10-04T14:03:46.453Z,63.80
2022-10-04T14:05:33.923Z,63.93
2022-10-04T14:07:19.991Z,63.80
2022-10-04T14:08:50.702Z,64.11
2022-10-04T14:10:28.550Z,63.99
2022-10-04T14:12:04.300Z,64.07
2022-10-04T14:13:42.958Z,64.14
2022-10-04T14:15:18.760Z,64.34
2022-10-04T14:16:56.133Z,64.26
2022-10-04T14:18:37.901Z,64.17
2022-10-04T14:20:12.410Z,64.27
2022-10-04T14:22:00.978Z,64.35
2022-10-04T14:23:23.206Z,64.17
2022-10-04T14:25:06.643Z,64.53
2022-10-04T14:26:26.256Z,64.24
2022-10-04T14:28:13.773Z,64.11
2022-10-04T14:29:34.806Z,64.13
2022-10-04T14:30:54.113Z,64.32
2022-10-04T14:32:20.276Z,63.88
2022-10-04T14:33:56.597Z,64.09
2022-10-04T14:35:10.751Z,64.03
2022-10-04T14:36:32.893Z,63.93
2022-10-04T14:37:59.208Z,63.65
2022-10-04T14:39:18.711Z,63.72
2022-10-04T14:40:34.510Z,63.67
2022-10-04T14:42:25.169Z,63.54
2022-10-04T14:44:14.234Z,63.40
2022-10-04T14:45:37.625Z,63.62
2022-10-04T14:46:52.517Z,63.45
2022-10-04T14:48:24.281Z,63.72
2022-10-04T14:49:45.927Z,63.67
2022-10-04T14:51:04.976Z,63.80
2022-10-04T14:52:22.589Z,63.87
2022-10-04T14:53:33.367Z,63.59
2022-10-04T14:54:50.880Z,63.64
2022-10-04T14:56:12.614Z,63.87
2022-10-04T14:57:22.742Z,63.49
2022-10-04T14:58:31.945Z,63.65
2022-10-04T14:59:54.982Z,63.64
2022-10-04T15:01:21.556Z,63.86
2022-10-04T15:02:49.292Z,63.62
2022-10-04T15:04:22.575Z,63.93
2022-10-04T15:05:44.219Z,63.92
2022-10-04T15:06:50.596Z,63.50
2022-10-04T15:07:56.881Z,63.57
2022-10-04T15:09:40.845Z,63.48
2022-10-04T15:10:49.299Z,63.29
2022-10-04T15:13:25.264Z,63.48
2022-10-04T15:14:39.056Z,63.68
2022-10-04T15:16:11.406Z,63.38
2022-10-04T15:17:29.142Z,63.48
2022-10-04T15:18:45.102Z,63.51
2022-10-04T15:20:03.036Z,63.81
2022-10-04T15:21:21.219Z,63.69
2022-10-04T15:22:27.327Z,63.82
2022-10-04T15:23:37.818Z,63.78
2022-10-04T15:24:48.850Z,63.59
2022-10-04T15:25:55.103Z,63.93
2022-10-04T15:27:38.143Z,63.62
2022-10-04T15:28:56.739Z,63.96
2022-10-04T15:30:09.912Z,63.83
2022-10-04T15:31:20.964Z,64.03
2022-10-04T15:32:35.592Z,63.93
2022-10-04T15:33:44.817Z,63.98
2022-10-04T15:35:00.045Z,64.00
2022-10-04T15:36:50.094Z,63.91
2022-10-04T15:37:59.812Z,63.93
2022-10-04T15:39:08.139Z,63.91
2022-10-04T15:40:24.355Z,64.09
2022-10-04T15:41:34.623Z,63.95
2022-10-04T15:42:38.229Z,63.98
2022-10-04T15:43:43.194Z,64.00
2022-10-04T15:45:22.466Z,63.99
2022-10-04T15:46:39.639Z,64.06
2022-10-04T15:48:01.675Z,64.23
2022-10-04T15:49:26.715Z,64.41
2022-10-04T15:50:34.076Z,64.21
2022-10-04T15:51:50.444Z,64.46
2022-10-04T15:53:10.356Z,64.42
2022-10-04T15:54:33.822Z,64.26
2022-10-04T15:55:55.763Z,64.25
2022-10-04T15:57:05.230Z,64.59
2022-10-04T15:58:25.064Z,64.46
2022-10-04T15:59:37.310Z,64.65
2022-10-04T16:00:52.917Z,64.75
2022-10-04T16:02:20.379Z,64.42
2022-10-04T16:03:36.044Z,64.74
2022-10-04T16:04:44.729Z,64.79
2022-10-04T16:06:00.110Z,64.58
2022-10-04T16:07:24.397Z,64.69
2022-10-04T16:08:48.476Z,64.91
2022-10-04T16:10:01.092Z,64.78
2022-10-04T16:11:37.693Z,64.92
2022-10-04T16:12:58.711Z,65.16
2022-10-04T16:14:20.019Z,65.20
2022-10-04T16:15:32.108Z,65.15
2022-10-04T16:17:03.846Z,65.34
2022-10-04T16:18:40.351Z,65.38
2022-10-04T16:20:17.920Z,65.43
2022-10-04T16:21:31.573Z,65.44
2022-10-04T16:22:35.134Z,65.73
2022-10-04T16:23:40.000Z,65.49
2022-10-04T16:24:49.800Z,65.62
2022-10-04T16:25:53.410Z,65.77
2022-10-04T16:27:23.494Z,65.68
2022-10-04T16:29:11.844Z,65.79
2022-10-04T16:30:27.404Z,66.12
2022-10-04T16:31:56.826Z,66.33
2022-10-04T16:33:29.253Z,66.20
2022-10-04T16:35:01.532Z,66.67
2022-10-04T16:36:10.752Z,66.62
2022-10-04T16:37:28.608Z,66.73
2022-10-04T16:38:37.203Z,66.73
2022-10-04T16:40:03.416Z,67.04
2022-10-04T16:41:12.765Z,66.86
2022-10-04T16:42:18.163Z,67.20
2022-10-04T16:43:29.112Z,67.34
2022-10-04T16:44:38.400Z,67.33
2022-10-04T16:46:06.108Z,67.67
2022-10-04T16:47:22.480Z,67.51
2022-10-04T16:48:51.777Z,67.80
2022-10-04T16:49:57.150Z,67.90
2022-10-04T16:51:31.435Z,68.02
2022-10-04T16:52:49.042Z,68.07
2022-10-04T16:53:59.344Z,68.23
2022-10-04T16:55:22.318Z,68.25
2022-10-04T16:56:26.546Z,68.76
2022-10-04T16:57:29.947Z,68.45
2022-10-04T16:58:50.817Z,68.66
2022-10-04T16:59:56.608Z,68.63
2022-10-04T17:01:33.990Z,68.74
2022-10-04T17:03:08.855Z,68.59
2022-10-04T17:04:55.332Z,69.08
2022-10-04T17:06:14.100Z,69.11
2022-10-04T17:07:25.122Z,69.34
2022-10-04T17:08:48.045Z,69.64
2022-10-04T17:09:57.770Z,69.59
2022-10-04T17:11:37.493Z,69.79
2022-10-04T17:12:47.390Z,69.92
2022-10-04T17:14:06.158Z,70.02
2022-10-04T17:15:27.411Z,70.19
2022-10-04T17:16:38.910Z,70.40
2022-10-04T17:17:46.475Z,70.42
2022-10-04T17:19:12.796Z,70.68
2022-10-04T17:20:29.416Z,70.75
2022-10-04T17:21:46.157Z,70.90
2022-10-04T17:23:09.300Z,71.00
2022-10-04T17:24:23.020Z,71.07